sensor_id;sensor_type;location;lat;lon;timestamp;P1;durP1;ratioP1;P2;durP2;ratioP2
43124;SDS011;49182;50.788;7.318;2022-08-19T00:01:31;19.02;;;15.23;;
43124;SDS011;49182;50.788;7.318;2022-08-19T00:04:04;19.25;;;15.20;;
43124;SDS011;49182;50.788;7.318;2022-08-19T00:06:33;20.08;;;14.75;;
43124;SDS011;49182;50.788;7.318;2022-08-19T00:09:00;20.83;;;14.95;;
43124;SDS011;49182;50.788;7.318;2022-08-19T00:11:27;21.88;;;15.40;;
43124;SDS011;49182;50.788;7.318;2022-08-19T00:13:55;21.90;;;15.50;;
43124;SDS011;49182;50.788;7.318;2022-08-19T00:16:22;22.67;;;16.15;;
43124;SDS011;49182;50.788;7.318;2022-08-19T00:18:52;20.98;;;15.68;;
43124;SDS011;49182;50.788;7.318;2022-08-19T00:21:19;22.77;;;16.30;;
43124;SDS011;49182;50.788;7.318;2022-08-19T00:23:45;19.05;;;15.25;;
43124;SDS011;49182;50.788;7.318;2022-08-19T00:26:12;22.17;;;15.13;;
43124;SDS011;49182;50.788;7.318;2022-08-19T00:28:39;20.50;;;16.05;;
43124;SDS011;49182;50.788;7.318;2022-08-19T00:31:08;21.17;;;16.08;;
43124;SDS011;49182;50.788;7.318;2022-08-19T00:33:35;21.67;;;16.10;;
43124;SDS011;49182;50.788;7.318;2022-08-19T00:36:03;28.70;;;15.65;;
43124;SDS011;49182;50.788;7.318;2022-08-19T00:38:32;21.08;;;15.77;;
43124;SDS011;49182;50.788;7.318;2022-08-19T00:41:03;21.23;;;15.15;;
43124;SDS011;49182;50.788;7.318;2022-08-19T00:43:30;28.35;;;16.58;;
43124;SDS011;49182;50.788;7.318;2022-08-19T00:45:57;22.98;;;16.20;;
43124;SDS011;49182;50.788;7.318;2022-08-19T00:48:25;21.15;;;16.45;;
43124;SDS011;49182;50.788;7.318;2022-08-19T00:50:52;23.63;;;16.08;;
43124;SDS011;49182;50.788;7.318;2022-08-19T00:53:22;24.98;;;16.63;;
43124;SDS011;49182;50.788;7.318;2022-08-19T00:55:51;24.30;;;16.23;;
43124;SDS011;49182;50.788;7.318;2022-08-19T00:58:21;22.15;;;17.02;;
43124;SDS011;49182;50.788;7.318;2022-08-19T01:00:50;21.17;;;16.33;;
43124;SDS011;49182;50.788;7.318;2022-08-19T01:03:17;22.00;;;16.58;;
43124;SDS011;49182;50.788;7.318;2022-08-19T01:05:46;21.98;;;16.58;;
43124;SDS011;49182;50.788;7.318;2022-08-19T01:08:15;21.30;;;16.13;;
43124;SDS011;49182;50.788;7.318;2022-08-19T01:10:45;23.15;;;16.40;;
43124;SDS011;49182;50.788;7.318;2022-08-19T01:13:15;21.38;;;15.52;;
43124;SDS011;49182;50.788;7.318;2022-08-19T01:15:45;19.52;;;15.05;;
43124;SDS011;49182;50.788;7.318;2022-08-19T01:18:15;18.95;;;15.85;;
43124;SDS011;49182;50.788;7.318;2022-08-19T01:20:44;21.38;;;15.95;;
43124;SDS011;49182;50.788;7.318;2022-08-19T01:23:13;23.08;;;16.95;;
43124;SDS011;49182;50.788;7.318;2022-08-19T01:25:42;20.48;;;15.18;;
43124;SDS011;49182;50.788;7.318;2022-08-19T01:28:16;23.02;;;16.10;;
43124;SDS011;49182;50.788;7.318;2022-08-19T01:30:59;24.08;;;15.82;;
43124;SDS011;49182;50.788;7.318;2022-08-19T01:33:39;21.08;;;15.65;;
43124;SDS011;49182;50.788;7.318;2022-08-19T01:36:07;20.73;;;16.38;;
43124;SDS011;49182;50.788;7.318;2022-08-19T01:38:38;24.45;;;16.63;;
43124;SDS011;49182;50.788;7.318;2022-08-19T01:41:10;21.38;;;16.30;;
43124;SDS011;49182;50.788;7.318;2022-08-19T01:43:37;22.23;;;16.92;;
43124;SDS011;49182;50.788;7.318;2022-08-19T01:46:24;23.52;;;18.13;;
43124;SDS011;49182;50.788;7.318;2022-08-19T01:48:51;22.60;;;16.52;;
43124;SDS011;49182;50.788;7.318;2022-08-19T01:51:17;23.73;;;16.35;;
43124;SDS011;49182;50.788;7.318;2022-08-19T01:53:48;24.23;;;16.73;;
43124;SDS011;49182;50.788;7.318;2022-08-19T01:56:15;23.40;;;17.10;;
43124;SDS011;49182;50.788;7.318;2022-08-19T01:58:43;23.58;;;16.52;;
43124;SDS011;49182;50.788;7.318;2022-08-19T02:01:13;20.63;;;16.35;;
43124;SDS011;49182;50.788;7.318;2022-08-19T02:03:40;24.85;;;16.58;;
43124;SDS011;49182;50.788;7.318;2022-08-19T02:06:06;23.30;;;16.60;;
43124;SDS011;49182;50.788;7.318;2022-08-19T02:08:34;21.20;;;16.02;;
43124;SDS011;49182;50.788;7.318;2022-08-19T02:11:04;23.88;;;16.55;;
43124;SDS011;49182;50.788;7.318;2022-08-19T02:13:32;20.80;;;16.63;;
43124;SDS011;49182;50.788;7.318;2022-08-19T02:16:00;22.40;;;16.67;;
43124;SDS011;49182;50.788;7.318;2022-08-19T02:18:29;22.73;;;15.95;;
43124;SDS011;49182;50.788;7.318;2022-08-19T02:20:56;22.15;;;16.65;;
43124;SDS011;49182;50.788;7.318;2022-08-19T02:23:22;21.83;;;16.75;;
43124;SDS011;49182;50.788;7.318;2022-08-19T02:29:03;22.80;;;16.17;;
43124;SDS011;49182;50.788;7.318;2022-08-19T02:31:30;20.60;;;16.08;;
43124;SDS011;49182;50.788;7.318;2022-08-19T02:33:57;25.67;;;17.27;;
43124;SDS011;49182;50.788;7.318;2022-08-19T02:36:24;24.10;;;16.63;;
43124;SDS011;49182;50.788;7.318;2022-08-19T02:38:51;21.83;;;16.63;;
43124;SDS011;49182;50.788;7.318;2022-08-19T02:41:21;24.30;;;17.17;;
43124;SDS011;49182;50.788;7.318;2022-08-19T02:46:40;20.85;;;15.77;;
43124;SDS011;49182;50.788;7.318;2022-08-19T02:49:06;21.00;;;16.13;;
43124;SDS011;49182;50.788;7.318;2022-08-19T02:51:35;20.63;;;15.73;;
43124;SDS011;49182;50.788;7.318;2022-08-19T02:54:03;21.55;;;16.00;;
43124;SDS011;49182;50.788;7.318;2022-08-19T02:56:31;22.02;;;15.65;;
43124;SDS011;49182;50.788;7.318;2022-08-19T02:59:00;22.90;;;16.65;;
43124;SDS011;49182;50.788;7.318;2022-08-19T03:01:27;21.98;;;16.45;;
43124;SDS011;49182;50.788;7.318;2022-08-19T03:03:58;22.88;;;17.13;;
43124;SDS011;49182;50.788;7.318;2022-08-19T03:06:26;24.63;;;17.35;;
43124;SDS011;49182;50.788;7.318;2022-08-19T03:08:53;23.58;;;16.92;;
43124;SDS011;49182;50.788;7.318;2022-08-19T03:11:21;22.75;;;16.60;;
43124;SDS011;49182;50.788;7.318;2022-08-19T03:13:49;23.67;;;17.02;;
43124;SDS011;49182;50.788;7.318;2022-08-19T03:16:17;21.50;;;16.48;;
43124;SDS011;49182;50.788;7.318;2022-08-19T03:18:45;22.48;;;16.83;;
43124;SDS011;49182;50.788;7.318;2022-08-19T03:21:16;23.17;;;17.38;;
43124;SDS011;49182;50.788;7.318;2022-08-19T03:23:43;24.70;;;17.45;;
43124;SDS011;49182;50.788;7.318;2022-08-19T03:26:10;24.70;;;17.35;;
43124;SDS011;49182;50.788;7.318;2022-08-19T03:28:42;25.10;;;17.88;;
43124;SDS011;49182;50.788;7.318;2022-08-19T03:31:23;24.60;;;17.55;;
43124;SDS011;49182;50.788;7.318;2022-08-19T03:34:14;28.02;;;18.10;;
43124;SDS011;49182;50.788;7.318;2022-08-19T03:36:44;25.58;;;18.10;;
43124;SDS011;49182;50.788;7.318;2022-08-19T03:39:12;24.67;;;17.75;;
43124;SDS011;49182;50.788;7.318;2022-08-19T03:41:41;24.05;;;17.23;;
43124;SDS011;49182;50.788;7.318;2022-08-19T03:44:11;22.85;;;17.55;;
43124;SDS011;49182;50.788;7.318;2022-08-19T03:46:45;23.45;;;17.35;;
43124;SDS011;49182;50.788;7.318;2022-08-19T03:49:12;23.85;;;17.42;;
43124;SDS011;49182;50.788;7.318;2022-08-19T03:51:40;23.90;;;16.35;;
43124;SDS011;49182;50.788;7.318;2022-08-19T03:54:11;24.42;;;17.92;;
43124;SDS011;49182;50.788;7.318;2022-08-19T03:56:40;22.95;;;16.92;;
43124;SDS011;49182;50.788;7.318;2022-08-19T03:59:09;22.70;;;16.95;;
43124;SDS011;49182;50.788;7.318;2022-08-19T04:01:37;22.33;;;16.23;;
43124;SDS011;49182;50.788;7.318;2022-08-19T04:04:04;22.42;;;16.60;;
43124;SDS011;49182;50.788;7.318;2022-08-19T04:06:33;22.88;;;17.08;;
43124;SDS011;49182;50.788;7.318;2022-08-19T04:09:06;26.30;;;16.60;;
43124;SDS011;49182;50.788;7.318;2022-08-19T04:11:36;25.80;;;18.08;;
43124;SDS011;49182;50.788;7.318;2022-08-19T04:14:10;23.60;;;17.30;;
43124;SDS011;49182;50.788;7.318;2022-08-19T04:16:38;23.02;;;17.77;;
43124;SDS011;49182;50.788;7.318;2022-08-19T04:19:05;26.35;;;17.50;;
43124;SDS011;49182;50.788;7.318;2022-08-19T04:21:35;22.50;;;16.35;;
43124;SDS011;49182;50.788;7.318;2022-08-19T04:24:02;23.77;;;17.17;;
43124;SDS011;49182;50.788;7.318;2022-08-19T04:26:30;22.73;;;17.17;;
43124;SDS011;49182;50.788;7.318;2022-08-19T04:29:00;20.85;;;16.55;;
43124;SDS011;49182;50.788;7.318;2022-08-19T04:31:28;23.35;;;16.33;;
43124;SDS011;49182;50.788;7.318;2022-08-19T04:33:57;22.17;;;16.27;;
43124;SDS011;49182;50.788;7.318;2022-08-19T04:36:26;26.63;;;18.08;;
43124;SDS011;49182;50.788;7.318;2022-08-19T04:38:55;23.42;;;17.00;;
43124;SDS011;49182;50.788;7.318;2022-08-19T04:41:23;21.70;;;16.25;;
43124;SDS011;49182;50.788;7.318;2022-08-19T04:43:50;23.98;;;16.65;;
43124;SDS011;49182;50.788;7.318;2022-08-19T04:46:19;25.42;;;16.58;;
43124;SDS011;49182;50.788;7.318;2022-08-19T04:49:06;20.98;;;15.30;;
43124;SDS011;49182;50.788;7.318;2022-08-19T04:51:39;22.13;;;15.50;;
43124;SDS011;49182;50.788;7.318;2022-08-19T04:54:07;24.90;;;16.67;;
43124;SDS011;49182;50.788;7.318;2022-08-19T04:56:33;24.50;;;17.05;;
43124;SDS011;49182;50.788;7.318;2022-08-19T04:59:00;21.25;;;16.45;;
43124;SDS011;49182;50.788;7.318;2022-08-19T05:01:29;24.50;;;16.95;;
43124;SDS011;49182;50.788;7.318;2022-08-19T05:03:57;23.95;;;17.05;;
43124;SDS011;49182;50.788;7.318;2022-08-19T05:06:23;22.70;;;16.63;;
43124;SDS011;49182;50.788;7.318;2022-08-19T05:08:50;27.52;;;17.48;;
43124;SDS011;49182;50.788;7.318;2022-08-19T05:11:18;22.90;;;17.15;;
43124;SDS011;49182;50.788;7.318;2022-08-19T05:13:52;23.38;;;17.65;;
43124;SDS011;49182;50.788;7.318;2022-08-19T05:16:19;23.27;;;17.08;;
43124;SDS011;49182;50.788;7.318;2022-08-19T05:18:49;22.13;;;16.88;;
43124;SDS011;49182;50.788;7.318;2022-08-19T05:21:17;22.13;;;16.55;;
43124;SDS011;49182;50.788;7.318;2022-08-19T05:23:44;26.95;;;17.20;;
43124;SDS011;49182;50.788;7.318;2022-08-19T05:26:11;21.75;;;16.70;;
43124;SDS011;49182;50.788;7.318;2022-08-19T05:28:38;24.63;;;16.83;;
43124;SDS011;49182;50.788;7.318;2022-08-19T05:31:04;22.85;;;17.00;;
43124;SDS011;49182;50.788;7.318;2022-08-19T05:33:31;27.35;;;17.23;;
43124;SDS011;49182;50.788;7.318;2022-08-19T05:36:00;23.17;;;16.90;;
43124;SDS011;49182;50.788;7.318;2022-08-19T05:38:28;22.50;;;15.68;;
43124;SDS011;49182;50.788;7.318;2022-08-19T05:40:55;22.95;;;16.73;;
43124;SDS011;49182;50.788;7.318;2022-08-19T05:43:21;23.38;;;17.60;;
43124;SDS011;49182;50.788;7.318;2022-08-19T05:45:48;21.30;;;16.00;;
43124;SDS011;49182;50.788;7.318;2022-08-19T05:48:15;26.42;;;16.65;;
43124;SDS011;49182;50.788;7.318;2022-08-19T05:50:42;26.05;;;17.38;;
43124;SDS011;49182;50.788;7.318;2022-08-19T05:53:10;21.77;;;16.23;;
43124;SDS011;49182;50.788;7.318;2022-08-19T05:55:36;30.65;;;18.33;;
43124;SDS011;49182;50.788;7.318;2022-08-19T05:58:03;25.80;;;18.08;;
43124;SDS011;49182;50.788;7.318;2022-08-19T06:00:30;24.92;;;17.67;;
43124;SDS011;49182;50.788;7.318;2022-08-19T06:02:56;26.27;;;17.77;;
43124;SDS011;49182;50.788;7.318;2022-08-19T06:05:23;29.00;;;18.13;;
43124;SDS011;49182;50.788;7.318;2022-08-19T06:07:50;24.35;;;17.13;;
43124;SDS011;49182;50.788;7.318;2022-08-19T06:10:18;22.42;;;16.85;;
43124;SDS011;49182;50.788;7.318;2022-08-19T06:12:44;23.58;;;18.10;;
43124;SDS011;49182;50.788;7.318;2022-08-19T06:15:12;25.10;;;17.27;;
43124;SDS011;49182;50.788;7.318;2022-08-19T06:17:40;24.45;;;18.00;;
43124;SDS011;49182;50.788;7.318;2022-08-19T06:20:07;23.33;;;17.73;;
43124;SDS011;49182;50.788;7.318;2022-08-19T06:22:37;23.23;;;17.23;;
43124;SDS011;49182;50.788;7.318;2022-08-19T06:25:04;23.42;;;17.38;;
43124;SDS011;49182;50.788;7.318;2022-08-19T06:27:33;23.23;;;17.60;;
43124;SDS011;49182;50.788;7.318;2022-08-19T06:30:00;25.52;;;18.27;;
43124;SDS011;49182;50.788;7.318;2022-08-19T06:32:26;26.27;;;18.67;;
43124;SDS011;49182;50.788;7.318;2022-08-19T06:34:53;22.77;;;16.92;;
43124;SDS011;49182;50.788;7.318;2022-08-19T06:37:20;23.70;;;17.98;;
43124;SDS011;49182;50.788;7.318;2022-08-19T06:39:47;23.20;;;17.20;;
43124;SDS011;49182;50.788;7.318;2022-08-19T06:42:14;22.98;;;17.60;;
43124;SDS011;49182;50.788;7.318;2022-08-19T06:44:45;22.80;;;16.85;;
43124;SDS011;49182;50.788;7.318;2022-08-19T06:47:15;25.00;;;17.45;;
43124;SDS011;49182;50.788;7.318;2022-08-19T06:49:54;23.95;;;16.88;;
43124;SDS011;49182;50.788;7.318;2022-08-19T06:52:26;26.58;;;19.27;;
43124;SDS011;49182;50.788;7.318;2022-08-19T06:54:53;24.65;;;17.55;;
43124;SDS011;49182;50.788;7.318;2022-08-19T06:57:21;25.10;;;16.42;;
43124;SDS011;49182;50.788;7.318;2022-08-19T06:59:49;25.35;;;17.60;;
43124;SDS011;49182;50.788;7.318;2022-08-19T07:02:16;25.48;;;17.50;;
43124;SDS011;49182;50.788;7.318;2022-08-19T07:04:48;22.67;;;17.85;;
43124;SDS011;49182;50.788;7.318;2022-08-19T07:07:18;24.55;;;17.38;;
43124;SDS011;49182;50.788;7.318;2022-08-19T07:09:47;31.33;;;17.90;;
43124;SDS011;49182;50.788;7.318;2022-08-19T07:12:25;29.38;;;19.38;;
43124;SDS011;49182;50.788;7.318;2022-08-19T07:14:57;27.30;;;19.63;;
43124;SDS011;49182;50.788;7.318;2022-08-19T07:17:24;27.80;;;20.38;;
43124;SDS011;49182;50.788;7.318;2022-08-19T07:19:50;28.95;;;20.30;;
43124;SDS011;49182;50.788;7.318;2022-08-19T07:22:20;29.60;;;20.73;;
43124;SDS011;49182;50.788;7.318;2022-08-19T07:24:49;30.35;;;20.52;;
43124;SDS011;49182;50.788;7.318;2022-08-19T07:27:17;29.38;;;20.85;;
43124;SDS011;49182;50.788;7.318;2022-08-19T07:29:49;31.88;;;20.85;;
43124;SDS011;49182;50.788;7.318;2022-08-19T07:32:24;28.90;;;20.42;;
43124;SDS011;49182;50.788;7.318;2022-08-19T07:34:51;29.25;;;18.75;;
43124;SDS011;49182;50.788;7.318;2022-08-19T07:37:17;26.27;;;19.23;;
43124;SDS011;49182;50.788;7.318;2022-08-19T07:39:44;31.42;;;21.30;;
43124;SDS011;49182;50.788;7.318;2022-08-19T07:42:11;25.10;;;19.05;;
43124;SDS011;49182;50.788;7.318;2022-08-19T07:44:39;31.70;;;20.60;;
43124;SDS011;49182;50.788;7.318;2022-08-19T07:47:11;31.83;;;19.55;;
43124;SDS011;49182;50.788;7.318;2022-08-19T07:49:59;31.40;;;19.60;;
43124;SDS011;49182;50.788;7.318;2022-08-19T07:52:25;28.80;;;18.75;;
43124;SDS011;49182;50.788;7.318;2022-08-19T07:54:52;38.90;;;22.52;;
43124;SDS011;49182;50.788;7.318;2022-08-19T07:57:18;26.42;;;18.17;;
43124;SDS011;49182;50.788;7.318;2022-08-19T07:59:45;30.05;;;21.02;;
43124;SDS011;49182;50.788;7.318;2022-08-19T08:02:12;25.42;;;18.52;;
43124;SDS011;49182;50.788;7.318;2022-08-19T08:04:39;25.70;;;17.98;;
43124;SDS011;49182;50.788;7.318;2022-08-19T08:07:07;28.73;;;17.73;;
43124;SDS011;49182;50.788;7.318;2022-08-19T08:09:35;24.58;;;17.27;;
43124;SDS011;49182;50.788;7.318;2022-08-19T08:12:05;26.38;;;19.45;;
43124;SDS011;49182;50.788;7.318;2022-08-19T08:14:55;21.13;;;16.45;;
43124;SDS011;49182;50.788;7.318;2022-08-19T08:17:25;28.50;;;19.57;;
43124;SDS011;49182;50.788;7.318;2022-08-19T08:20:14;28.70;;;18.35;;
43124;SDS011;49182;50.788;7.318;2022-08-19T08:22:44;24.67;;;18.75;;
43124;SDS011;49182;50.788;7.318;2022-08-19T08:25:13;36.40;;;18.35;;
43124;SDS011;49182;50.788;7.318;2022-08-19T08:27:42;26.17;;;18.33;;
43124;SDS011;49182;50.788;7.318;2022-08-19T08:30:12;24.77;;;17.75;;
43124;SDS011;49182;50.788;7.318;2022-08-19T08:32:44;22.70;;;16.85;;
43124;SDS011;49182;50.788;7.318;2022-08-19T08:35:12;22.95;;;15.98;;
43124;SDS011;49182;50.788;7.318;2022-08-19T08:37:40;25.90;;;17.35;;
43124;SDS011;49182;50.788;7.318;2022-08-19T08:40:09;24.42;;;17.83;;
43124;SDS011;49182;50.788;7.318;2022-08-19T08:42:46;25.65;;;15.98;;
43124;SDS011;49182;50.788;7.318;2022-08-19T08:45:19;20.35;;;15.48;;
43124;SDS011;49182;50.788;7.318;2022-08-19T08:47:47;27.90;;;18.45;;
43124;SDS011;49182;50.788;7.318;2022-08-19T08:50:18;27.80;;;17.48;;
43124;SDS011;49182;50.788;7.318;2022-08-19T08:52:52;26.88;;;15.68;;
43124;SDS011;49182;50.788;7.318;2022-08-19T08:55:24;24.98;;;15.73;;
43124;SDS011;49182;50.788;7.318;2022-08-19T08:58:03;25.38;;;15.68;;
43124;SDS011;49182;50.788;7.318;2022-08-19T09:00:33;24.05;;;14.55;;
43124;SDS011;49182;50.788;7.318;2022-08-19T09:03:15;24.65;;;14.60;;
43124;SDS011;49182;50.788;7.318;2022-08-19T09:05:46;21.35;;;13.40;;
43124;SDS011;49182;50.788;7.318;2022-08-19T09:08:24;18.85;;;15.35;;
43124;SDS011;49182;50.788;7.318;2022-08-19T09:11:00;19.50;;;13.95;;
43124;SDS011;49182;50.788;7.318;2022-08-19T09:13:35;20.02;;;14.32;;
43124;SDS011;49182;50.788;7.318;2022-08-19T09:16:20;21.48;;;14.50;;
43124;SDS011;49182;50.788;7.318;2022-08-19T09:18:54;17.45;;;12.80;;
43124;SDS011;49182;50.788;7.318;2022-08-19T09:21:23;17.30;;;12.70;;
43124;SDS011;49182;50.788;7.318;2022-08-19T09:23:58;20.67;;;14.00;;
43124;SDS011;49182;50.788;7.318;2022-08-19T09:26:27;15.98;;;11.38;;
43124;SDS011;49182;50.788;7.318;2022-08-19T09:29:13;13.15;;;10.05;;
43124;SDS011;49182;50.788;7.318;2022-08-19T09:31:40;16.33;;;10.38;;
43124;SDS011;49182;50.788;7.318;2022-08-19T09:34:06;16.50;;;10.75;;
43124;SDS011;49182;50.788;7.318;2022-08-19T09:36:46;16.17;;;10.20;;
43124;SDS011;49182;50.788;7.318;2022-08-19T09:39:13;14.23;;;9.70;;
43124;SDS011;49182;50.788;7.318;2022-08-19T09:41:43;13.18;;;8.88;;
43124;SDS011;49182;50.788;7.318;2022-08-19T09:44:14;13.45;;;9.77;;
43124;SDS011;49182;50.788;7.318;2022-08-19T09:46:43;19.50;;;9.32;;
43124;SDS011;49182;50.788;7.318;2022-08-19T09:49:09;11.20;;;7.28;;
43124;SDS011;49182;50.788;7.318;2022-08-19T09:51:38;16.58;;;7.65;;
43124;SDS011;49182;50.788;7.318;2022-08-19T09:54:06;10.88;;;7.45;;
43124;SDS011;49182;50.788;7.318;2022-08-19T09:56:36;12.00;;;7.93;;
43124;SDS011;49182;50.788;7.318;2022-08-19T09:59:04;10.07;;;6.22;;
43124;SDS011;49182;50.788;7.318;2022-08-19T10:01:31;10.88;;;6.85;;
43124;SDS011;49182;50.788;7.318;2022-08-19T10:03:59;11.45;;;6.80;;
43124;SDS011;49182;50.788;7.318;2022-08-19T10:06:27;11.50;;;6.43;;
43124;SDS011;49182;50.788;7.318;2022-08-19T10:09:11;8.88;;;6.18;;
43124;SDS011;49182;50.788;7.318;2022-08-19T10:11:39;10.70;;;7.20;;
43124;SDS011;49182;50.788;7.318;2022-08-19T10:14:19;13.35;;;8.93;;
43124;SDS011;49182;50.788;7.318;2022-08-19T10:16:45;11.60;;;7.75;;
43124;SDS011;49182;50.788;7.318;2022-08-19T10:19:12;13.23;;;8.38;;
43124;SDS011;49182;50.788;7.318;2022-08-19T10:21:39;13.93;;;8.52;;
43124;SDS011;49182;50.788;7.318;2022-08-19T10:24:05;12.48;;;9.27;;
43124;SDS011;49182;50.788;7.318;2022-08-19T10:26:35;18.30;;;10.15;;
43124;SDS011;49182;50.788;7.318;2022-08-19T10:29:03;14.60;;;9.70;;
43124;SDS011;49182;50.788;7.318;2022-08-19T10:31:36;15.57;;;9.18;;
43124;SDS011;49182;50.788;7.318;2022-08-19T10:34:22;16.45;;;12.23;;
43124;SDS011;49182;50.788;7.318;2022-08-19T10:36:53;15.40;;;9.93;;
43124;SDS011;49182;50.788;7.318;2022-08-19T10:39:26;14.30;;;11.10;;
43124;SDS011;49182;50.788;7.318;2022-08-19T10:41:56;15.98;;;10.73;;
43124;SDS011;49182;50.788;7.318;2022-08-19T10:44:23;13.93;;;10.15;;
43124;SDS011;49182;50.788;7.318;2022-08-19T10:46:51;23.17;;;12.70;;
43124;SDS011;49182;50.788;7.318;2022-08-19T10:49:18;15.73;;;11.15;;
43124;SDS011;49182;50.788;7.318;2022-08-19T10:51:45;14.57;;;10.23;;
43124;SDS011;49182;50.788;7.318;2022-08-19T10:54:14;14.52;;;11.00;;
43124;SDS011;49182;50.788;7.318;2022-08-19T10:56:41;19.35;;;13.05;;
43124;SDS011;49182;50.788;7.318;2022-08-19T10:59:08;14.38;;;9.77;;
43124;SDS011;49182;50.788;7.318;2022-08-19T11:01:35;13.38;;;9.25;;
43124;SDS011;49182;50.788;7.318;2022-08-19T11:04:03;12.65;;;8.77;;
43124;SDS011;49182;50.788;7.318;2022-08-19T11:06:31;16.33;;;11.15;;
43124;SDS011;49182;50.788;7.318;2022-08-19T11:08:58;15.27;;;10.75;;
43124;SDS011;49182;50.788;7.318;2022-08-19T11:11:24;18.95;;;11.90;;
43124;SDS011;49182;50.788;7.318;2022-08-19T11:13:51;16.63;;;11.50;;
43124;SDS011;49182;50.788;7.318;2022-08-19T11:16:19;20.38;;;12.82;;
43124;SDS011;49182;50.788;7.318;2022-08-19T11:18:48;15.55;;;11.57;;
43124;SDS011;49182;50.788;7.318;2022-08-19T11:21:18;14.68;;;10.80;;
43124;SDS011;49182;50.788;7.318;2022-08-19T11:26:15;14.57;;;11.40;;
43124;SDS011;49182;50.788;7.318;2022-08-19T11:28:43;14.52;;;9.85;;
43124;SDS011;49182;50.788;7.318;2022-08-19T11:31:10;15.38;;;9.10;;
43124;SDS011;49182;50.788;7.318;2022-08-19T11:33:37;15.27;;;9.25;;
43124;SDS011;49182;50.788;7.318;2022-08-19T11:36:04;12.57;;;8.60;;
43124;SDS011;49182;50.788;7.318;2022-08-19T11:38:32;11.18;;;8.15;;
43124;SDS011;49182;50.788;7.318;2022-08-19T11:41:01;10.82;;;8.23;;
43124;SDS011;49182;50.788;7.318;2022-08-19T11:43:30;10.05;;;6.93;;
43124;SDS011;49182;50.788;7.318;2022-08-19T11:46:03;11.55;;;7.88;;
43124;SDS011;49182;50.788;7.318;2022-08-19T11:48:30;11.88;;;8.93;;
43124;SDS011;49182;50.788;7.318;2022-08-19T11:50:57;13.10;;;9.68;;
43124;SDS011;49182;50.788;7.318;2022-08-19T11:53:24;11.75;;;8.52;;
43124;SDS011;49182;50.788;7.318;2022-08-19T11:55:53;11.30;;;7.80;;
43124;SDS011;49182;50.788;7.318;2022-08-19T11:58:20;11.80;;;7.00;;
43124;SDS011;49182;50.788;7.318;2022-08-19T12:00:47;11.27;;;8.50;;
43124;SDS011;49182;50.788;7.318;2022-08-19T12:03:14;9.93;;;7.28;;
43124;SDS011;49182;50.788;7.318;2022-08-19T12:05:41;8.68;;;7.63;;
43124;SDS011;49182;50.788;7.318;2022-08-19T12:08:08;13.75;;;8.57;;
43124;SDS011;49182;50.788;7.318;2022-08-19T12:10:35;12.40;;;8.23;;
43124;SDS011;49182;50.788;7.318;2022-08-19T12:13:03;11.35;;;7.97;;
43124;SDS011;49182;50.788;7.318;2022-08-19T12:15:30;17.73;;;7.47;;
43124;SDS011;49182;50.788;7.318;2022-08-19T12:18:02;11.65;;;8.63;;
43124;SDS011;49182;50.788;7.318;2022-08-19T12:20:30;10.70;;;8.35;;
43124;SDS011;49182;50.788;7.318;2022-08-19T12:23:01;11.60;;;7.85;;
43124;SDS011;49182;50.788;7.318;2022-08-19T12:25:28;10.20;;;7.82;;
43124;SDS011;49182;50.788;7.318;2022-08-19T12:27:55;10.55;;;7.93;;
43124;SDS011;49182;50.788;7.318;2022-08-19T12:30:24;11.35;;;6.97;;
43124;SDS011;49182;50.788;7.318;2022-08-19T12:32:51;13.07;;;7.47;;
43124;SDS011;49182;50.788;7.318;2022-08-19T12:35:18;13.32;;;8.65;;
43124;SDS011;49182;50.788;7.318;2022-08-19T12:37:47;10.35;;;8.02;;
43124;SDS011;49182;50.788;7.318;2022-08-19T12:40:22;13.23;;;7.78;;
43124;SDS011;49182;50.788;7.318;2022-08-19T12:42:51;11.00;;;8.13;;
43124;SDS011;49182;50.788;7.318;2022-08-19T12:45:18;12.20;;;9.18;;
43124;SDS011;49182;50.788;7.318;2022-08-19T12:47:47;13.35;;;8.07;;
43124;SDS011;49182;50.788;7.318;2022-08-19T12:50:15;11.60;;;8.40;;
43124;SDS011;49182;50.788;7.318;2022-08-19T12:52:41;9.82;;;7.90;;
43124;SDS011;49182;50.788;7.318;2022-08-19T12:55:09;7.97;;;6.63;;
43124;SDS011;49182;50.788;7.318;2022-08-19T12:57:36;8.10;;;6.80;;
43124;SDS011;49182;50.788;7.318;2022-08-19T13:00:04;8.13;;;6.57;;
43124;SDS011;49182;50.788;7.318;2022-08-19T13:02:32;9.68;;;7.32;;
43124;SDS011;49182;50.788;7.318;2022-08-19T13:05:07;9.38;;;6.38;;
43124;SDS011;49182;50.788;7.318;2022-08-19T13:07:35;8.13;;;6.32;;
43124;SDS011;49182;50.788;7.318;2022-08-19T13:10:02;9.18;;;5.82;;
43124;SDS011;49182;50.788;7.318;2022-08-19T13:12:29;7.97;;;5.47;;
43124;SDS011;49182;50.788;7.318;2022-08-19T13:14:56;7.70;;;5.82;;
43124;SDS011;49182;50.788;7.318;2022-08-19T13:17:24;7.88;;;4.68;;
43124;SDS011;49182;50.788;7.318;2022-08-19T13:19:50;7.32;;;4.63;;
43124;SDS011;49182;50.788;7.318;2022-08-19T13:22:18;8.98;;;4.88;;
43124;SDS011;49182;50.788;7.318;2022-08-19T13:24:45;7.15;;;4.95;;
43124;SDS011;49182;50.788;7.318;2022-08-19T13:27:13;7.97;;;4.70;;
43124;SDS011;49182;50.788;7.318;2022-08-19T13:29:40;7.25;;;5.70;;
43124;SDS011;49182;50.788;7.318;2022-08-19T13:32:08;7.72;;;5.90;;
43124;SDS011;49182;50.788;7.318;2022-08-19T13:34:38;12.50;;;6.03;;
43124;SDS011;49182;50.788;7.318;2022-08-19T13:37:05;8.18;;;5.50;;
43124;SDS011;49182;50.788;7.318;2022-08-19T13:39:34;6.70;;;4.82;;
43124;SDS011;49182;50.788;7.318;2022-08-19T13:42:01;7.50;;;5.72;;
43124;SDS011;49182;50.788;7.318;2022-08-19T13:44:28;8.68;;;5.07;;
43124;SDS011;49182;50.788;7.318;2022-08-19T13:46:55;14.00;;;6.10;;
43124;SDS011;49182;50.788;7.318;2022-08-19T13:49:27;9.05;;;5.55;;
43124;SDS011;49182;50.788;7.318;2022-08-19T13:51:54;7.65;;;5.32;;
43124;SDS011;49182;50.788;7.318;2022-08-19T13:54:20;8.32;;;5.05;;
43124;SDS011;49182;50.788;7.318;2022-08-19T13:56:48;9.15;;;5.32;;
43124;SDS011;49182;50.788;7.318;2022-08-19T13:59:15;5.93;;;4.22;;
43124;SDS011;49182;50.788;7.318;2022-08-19T14:01:41;7.22;;;4.75;;
43124;SDS011;49182;50.788;7.318;2022-08-19T14:04:08;8.63;;;4.50;;
43124;SDS011;49182;50.788;7.318;2022-08-19T14:06:35;6.13;;;4.93;;
43124;SDS011;49182;50.788;7.318;2022-08-19T14:09:02;7.13;;;4.65;;
43124;SDS011;49182;50.788;7.318;2022-08-19T14:11:29;6.38;;;4.38;;
43124;SDS011;49182;50.788;7.318;2022-08-19T14:13:57;8.07;;;4.65;;
43124;SDS011;49182;50.788;7.318;2022-08-19T14:16:24;6.32;;;4.35;;
43124;SDS011;49182;50.788;7.318;2022-08-19T14:18:51;9.60;;;4.07;;
43124;SDS011;49182;50.788;7.318;2022-08-19T14:21:19;7.55;;;4.20;;
43124;SDS011;49182;50.788;7.318;2022-08-19T14:23:48;7.07;;;4.13;;
43124;SDS011;49182;50.788;7.318;2022-08-19T14:26:15;6.00;;;3.83;;
43124;SDS011;49182;50.788;7.318;2022-08-19T14:28:44;7.82;;;4.43;;
43124;SDS011;49182;50.788;7.318;2022-08-19T14:31:14;10.82;;;5.60;;
43124;SDS011;49182;50.788;7.318;2022-08-19T14:36:08;8.23;;;5.28;;
43124;SDS011;49182;50.788;7.318;2022-08-19T14:38:35;7.53;;;5.13;;
43124;SDS011;49182;50.788;7.318;2022-08-19T14:41:05;11.38;;;4.70;;
43124;SDS011;49182;50.788;7.318;2022-08-19T14:43:36;8.00;;;5.43;;
43124;SDS011;49182;50.788;7.318;2022-08-19T14:46:03;8.20;;;5.80;;
43124;SDS011;49182;50.788;7.318;2022-08-19T14:48:32;8.27;;;4.90;;